Time;durP1;ratioP1;P1;durP2;ratioP2;P2;SDS_P1;SDS_P2;PMS_P1;PMS_P2;Temp;Humidity;BMP_temperature;BMP_pressure;BME280_temperature;BME280_humidity;BME280_pressure;Samples;Min_cycle;Max_cycle;Signal;HPM_P1;HPM_P2
2021/11/17 02:27:58;;;;;;;;;;;10.80;61.40;;;;;;5080302;28;19913;-71
2021/11/17 02:30:29;;;;;;;;;;;10.80;61.50;;;;;;5055177;28;19931;-71
2021/11/17 02:33:05;;;;;;;;;;;10.90;61.50;;;;;;5056339;28;19909;-70
2021/11/17 02:35:46;;;;;;;;;;;10.90;61.40;;;;;;5064394;28;19920;-71
2021/11/17 02:38:20;;;;;;;;;;;10.90;61.40;;;;;;5095058;28;19978;-71
2021/11/17 02:41:01;;;;;;;;;;;10.90;61.40;;;;;;5096165;28;20287;-71
2021/11/17 02:43:33;;;;;;;;;;;10.80;61.30;;;;;;5095263;28;19915;-70
2021/11/17 02:45:58;;;;;;;;;;;10.90;61.40;;;;;;5087866;28;19912;-71
2021/11/17 02:48:26;;;;;;;;;;;10.80;61.30;;;;;;5092599;28;19961;-70
2021/11/17 02:50:55;;;;;;;;;;;10.80;61.30;;;;;;5074913;28;19958;-71
2021/11/17 02:53:27;;;;;;;;;;;10.90;61.40;;;;;;5074647;28;19916;-71
2021/11/17 02:56:08;;;;;;;;;;;10.90;61.40;;;;;;5059540;28;19912;-70
2021/11/17 02:58:33;;;;;;;;;;;10.90;61.40;;;;;;5074301;28;19995;-70
2021/11/17 03:01:18;;;;;;;;;;;10.90;61.40;;;;;;5074594;28;20006;-70
2021/11/17 03:04:02;;;;;;;;;;;10.90;61.40;;;;;;5071944;28;19913;-70
2021/11/17 03:06:36;;;;;;;;;;;10.80;61.30;;;;;;5079940;28;19955;-70
2021/11/17 03:09:20;;;;;;;;;;;10.80;61.40;;;;;;5072536;28;19920;-71
2021/11/17 03:12:05;;;;;;;;;;;10.80;61.40;;;;;;5094656;28;19940;-70
2021/11/17 03:14:39;;;;;;;;;;;10.80;61.40;;;;;;5081653;28;19936;-70
2021/11/17 03:17:17;;;;;;;;;;;10.80;61.50;;;;;;5067410;28;20003;-71
2021/11/17 03:20:01;;;;;;;;;;;10.80;61.40;;;;;;5086189;28;19912;-70
2021/11/17 03:22:27;;;;;;;;;;;10.80;61.40;;;;;;5073045;28;20050;-71
2021/11/17 03:24:59;;;;;;;;;;;10.80;61.40;;;;;;5074245;28;20343;-70
2021/11/17 03:27:31;;;;;;;;;;;10.80;61.40;;;;;;5074096;28;20007;-71
2021/11/17 03:30:23;;;;;;;;;;;10.90;61.40;;;;;;5078533;28;19912;-70
2021/11/17 03:33:08;;;;;;;;;;;10.80;61.30;;;;;;5076847;28;19959;-71
2021/11/17 03:35:36;;;;;;;;;;;10.80;61.30;;;;;;5076878;28;20289;-70
2021/11/17 03:38:18;;;;;;;;;;;10.80;61.30;;;;;;5051613;28;19964;-71
2021/11/17 03:41:02;;;;;;;;;;;10.90;61.40;;;;;;5082304;28;19920;-71
2021/11/17 03:43:28;;;;;;;;;;;10.80;61.30;;;;;;5091348;28;19908;-71
2021/11/17 03:45:53;;;;;;;;;;;10.90;61.50;;;;;;5093237;28;19918;-70
2021/11/17 03:48:19;;;;;;;;;;;10.90;61.50;;;;;;5089971;28;19912;-71
2021/11/17 03:50:52;;;;;;;;;;;10.90;61.40;;;;;;5091184;28;20007;-71
2021/11/17 03:53:30;;;;;;;;;;;10.90;61.40;;;;;;5091701;28;19955;-71
2021/11/17 03:56:13;;;;;;;;;;;10.90;61.40;;;;;;5093515;28;19915;-71
2021/11/17 03:58:42;;;;;;;;;;;10.90;61.40;;;;;;5083345;28;19916;-71
2021/11/17 04:01:22;;;;;;;;;;;10.90;61.40;;;;;;5073428;28;20267;-71
2021/11/17 04:04:07;;;;;;;;;;;10.90;61.40;;;;;;5071747;28;19908;-71
2021/11/17 04:06:33;;;;;;;;;;;10.90;61.40;;;;;;5052471;28;20277;-71
2021/11/17 04:09:17;;;;;;;;;;;10.90;61.40;;;;;;5051176;28;20075;-70
2021/11/17 04:11:58;;;;;;;;;;;10.90;61.50;;;;;;5052460;28;19916;-71
2021/11/17 04:14:32;;;;;;;;;;;10.90;61.50;;;;;;5052267;28;19960;-71
2021/11/17 04:17:20;;;;;;;;;;;10.90;61.50;;;;;;5050966;28;19909;-71
2021/11/17 04:19:54;;;;;;;;;;;10.90;61.50;;;;;;5060311;28;20361;-71
2021/11/17 04:22:30;;;;;;;;;;;11.00;61.60;;;;;;5079909;28;19912;-70
2021/11/17 04:25:11;;;;;;;;;;;11.00;61.60;;;;;;5070460;28;19916;-70
2021/11/17 04:27:37;;;;;;;;;;;11.00;61.50;;;;;;5072132;28;19912;-71
2021/11/17 04:30:02;;;;;;;;;;;11.00;61.50;;;;;;5072762;28;19912;-70
2021/11/17 04:32:31;;;;;;;;;;;11.00;61.50;;;;;;5071917;28;19999;-71
2021/11/17 04:35:15;;;;;;;;;;;11.00;61.50;;;;;;5075046;28;19916;-71
2021/11/17 04:37:59;;;;;;;;;;;11.00;61.40;;;;;;5091976;28;19962;-71
2021/11/17 04:40:32;;;;;;;;;;;11.00;61.50;;;;;;5089597;28;19919;-71
2021/11/17 04:42:58;;;;;;;;;;;11.00;61.40;;;;;;5091950;28;19957;-71
2021/11/17 04:45:42;;;;;;;;;;;11.00;61.40;;;;;;5091774;28;19995;-71
2021/11/17 04:48:07;;;;;;;;;;;11.00;61.40;;;;;;5089421;28;19950;-71
2021/11/17 04:50:42;;;;;;;;;;;11.00;61.40;;;;;;5081132;28;19955;-70
2021/11/17 04:53:14;;;;;;;;;;;11.00;61.40;;;;;;5071588;28;19999;-70
2021/11/17 04:55:40;;;;;;;;;;;11.00;61.40;;;;;;5083827;28;19945;-70
2021/11/17 04:58:24;;;;;;;;;;;11.10;61.50;;;;;;5081986;28;20401;-70
2021/11/17 05:00:56;;;;;;;;;;;11.00;61.40;;;;;;5049998;28;19923;-70
2021/11/17 05:03:22;;;;;;;;;;;11.10;61.40;;;;;;5050120;28;19908;-70
2021/11/17 05:05:50;;;;;;;;;;;11.10;61.40;;;;;;5081102;28;19962;-70
2021/11/17 05:08:22;;;;;;;;;;;11.10;61.50;;;;;;5071312;28;19915;-70
2021/11/17 05:11:06;;;;;;;;;;;11.10;61.50;;;;;;5078471;28;19922;-70
2021/11/17 05:13:32;;;;;;;;;;;11.10;62.30;;;;;;5091517;28;19919;-70
2021/11/17 05:15:57;;;;;;;;;;;11.10;61.50;;;;;;5089685;28;19924;-69
2021/11/17 05:18:32;;;;;;;;;;;11.10;61.40;;;;;;5086360;28;19912;-70
2021/11/17 05:21:06;;;;;;;;;;;11.10;61.40;;;;;;5071018;28;20455;-70
2021/11/17 05:23:38;;;;;;;;;;;11.10;61.40;;;;;;5064757;28;19963;-70
2021/11/17 05:26:03;;;;;;;;;;;11.10;61.30;;;;;;5071139;28;19947;-70
2021/11/17 05:28:48;;;;;;;;;;;11.10;61.20;;;;;;5071090;28;19958;-70
2021/11/17 05:31:13;;;;;;;;;;;11.10;61.20;;;;;;5083854;28;20276;-70
2021/11/17 05:33:57;;;;;;;;;;;11.10;61.20;;;;;;5090139;28;19912;-70
2021/11/17 05:36:29;;;;;;;;;;;11.10;61.20;;;;;;5070019;28;20377;-70
2021/11/17 05:38:57;;;;;;;;;;;11.10;61.10;;;;;;5070928;28;19909;-70
2021/11/17 05:41:38;;;;;;;;;;;11.10;61.10;;;;;;5070923;28;20282;-70
2021/11/17 05:44:22;;;;;;;;;;;11.00;61.00;;;;;;5071885;28;19973;-70
2021/11/17 05:46:53;;;;;;;;;;;11.00;60.90;;;;;;5071758;28;19958;-70
2021/11/17 05:49:34;;;;;;;;;;;11.00;60.90;;;;;;5070685;28;19915;-70
2021/11/17 05:51:59;;;;;;;;;;;11.00;60.90;;;;;;5070432;28;19913;-70
2021/11/17 05:54:40;;;;;;;;;;;11.00;60.90;;;;;;5090058;28;19916;-70
2021/11/17 05:57:12;;;;;;;;;;;11.00;60.90;;;;;;5089644;28;19908;-70
2021/11/17 05:59:56;;;;;;;;;;;11.00;60.90;;;;;;5085282;28;20366;-70
2021/11/17 06:02:22;;;;;;;;;;;11.00;60.90;;;;;;5059242;28;20295;-71
2021/11/17 06:04:47;;;;;;;;;;;11.00;60.90;;;;;;5093208;28;19912;-70
2021/11/17 06:07:13;;;;;;;;;;;11.00;61.00;;;;;;5094651;28;20042;-70
2021/11/17 06:09:38;;;;;;;;;;;10.90;60.90;;;;;;5093593;28;19915;-70
2021/11/17 06:12:05;;;;;;;;;;;10.90;60.90;;;;;;5094484;28;20296;-71
2021/11/17 06:14:32;;;;;;;;;;;10.90;60.90;;;;;;5074350;28;19921;-70
2021/11/17 06:17:01;;;;;;;;;;;10.90;60.90;;;;;;5074472;28;19932;-71
2021/11/17 06:19:28;;;;;;;;;;;10.90;61.00;;;;;;5073891;28;20612;-71
2021/11/17 06:21:55;;;;;;;;;;;10.90;61.00;;;;;;5074496;28;19924;-71
2021/11/17 06:24:21;;;;;;;;;;;10.80;60.90;;;;;;5075069;28;20392;-71
2021/11/17 06:26:47;;;;;;;;;;;10.80;60.90;;;;;;5074472;28;19909;-71
2021/11/17 06:29:16;;;;;;;;;;;10.80;61.00;;;;;;5072694;28;19962;-71
2021/11/17 06:31:42;;;;;;;;;;;10.80;61.10;;;;;;5075938;28;20369;-73
2021/11/17 06:34:26;;;;;;;;;;;10.80;61.10;;;;;;5084845;28;19913;-71
2021/11/17 06:36:52;;;;;;;;;;;10.80;61.10;;;;;;5083566;28;19916;-71
2021/11/17 06:39:17;;;;;;;;;;;10.80;61.10;;;;;;5089956;28;19934;-71
2021/11/17 06:41:43;;;;;;;;;;;10.80;61.10;;;;;;5074001;28;19924;-71
2021/11/17 06:44:09;;;;;;;;;;;10.80;61.10;;;;;;5089514;28;20365;-71
2021/11/17 06:46:34;;;;;;;;;;;10.90;61.20;;;;;;5094288;28;20490;-71
2021/11/17 06:49:00;;;;;;;;;;;10.90;61.00;;;;;;5094257;28;19912;-71
2021/11/17 06:51:25;;;;;;;;;;;10.90;61.10;;;;;;5093915;28;19914;-71
2021/11/17 06:53:51;;;;;;;;;;;10.90;61.10;;;;;;5080322;28;20348;-71
2021/11/17 06:56:18;;;;;;;;;;;10.90;61.00;;;;;;5073499;28;19966;-71
2021/11/17 06:58:44;;;;;;;;;;;10.90;61.10;;;;;;5073901;28;19913;-71
2021/11/17 07:01:10;;;;;;;;;;;10.90;61.10;;;;;;5073508;28;19948;-71
2021/11/17 07:03:36;;;;;;;;;;;10.90;61.10;;;;;;5078411;28;19958;-71
2021/11/17 07:06:02;;;;;;;;;;;10.90;61.80;;;;;;5090579;28;20289;-71
2021/11/17 07:08:28;;;;;;;;;;;10.90;61.10;;;;;;5094284;28;19915;-71
2021/11/17 07:10:54;;;;;;;;;;;10.90;61.00;;;;;;5092775;28;20305;-71
2021/11/17 07:13:19;;;;;;;;;;;10.90;61.00;;;;;;5083607;28;19919;-71
2021/11/17 07:15:45;;;;;;;;;;;11.00;61.00;;;;;;5073100;28;19981;-71
2021/11/17 07:18:10;;;;;;;;;;;11.00;61.00;;;;;;5073582;28;19975;-71
2021/11/17 07:20:37;;;;;;;;;;;11.00;61.00;;;;;;5073012;28;20009;-71
2021/11/17 07:23:02;;;;;;;;;;;11.00;61.10;;;;;;5074230;28;19912;-71
2021/11/17 07:25:28;;;;;;;;;;;11.00;61.20;;;;;;5072894;28;19991;-71
2021/11/17 07:27:56;;;;;;;;;;;11.00;61.20;;;;;;5071700;28;19919;-72
2021/11/17 07:30:23;;;;;;;;;;;11.00;61.30;;;;;;5072600;28;19913;-71
2021/11/17 07:32:49;;;;;;;;;;;11.00;61.30;;;;;;5075017;28;19920;-70
2021/11/17 07:35:15;;;;;;;;;;;11.00;61.30;;;;;;5085604;28;20289;-71
2021/11/17 07:37:40;;;;;;;;;;;11.10;61.30;;;;;;5092914;28;19908;-71
2021/11/17 07:40:07;;;;;;;;;;;11.10;61.10;;;;;;5089285;28;19916;-71
2021/11/17 07:42:33;;;;;;;;;;;11.10;61.10;;;;;;5073769;28;19919;-71
2021/11/17 07:44:59;;;;;;;;;;;11.10;61.00;;;;;;5092076;28;19908;-71
2021/11/17 07:47:24;;;;;;;;;;;11.10;61.00;;;;;;5091849;28;19909;-71
2021/11/17 07:49:50;;;;;;;;;;;11.10;61.00;;;;;;5092801;28;19943;-72
2021/11/17 07:52:16;;;;;;;;;;;11.20;61.00;;;;;;5093039;28;20362;-72
2021/11/17 07:54:41;;;;;;;;;;;11.20;61.00;;;;;;5074575;28;19923;-70
2021/11/17 07:57:08;;;;;;;;;;;11.30;61.10;;;;;;5072609;28;19916;-71
2021/11/17 07:59:34;;;;;;;;;;;11.30;61.00;;;;;;5072425;28;19965;-71
2021/11/17 08:02:08;;;;;;;;;;;11.30;60.90;;;;;;5072298;28;19916;-71
2021/11/17 08:04:35;;;;;;;;;;;11.40;61.00;;;;;;5079946;28;19958;-71
2021/11/17 08:07:01;;;;;;;;;;;11.40;60.90;;;;;;5072013;28;20365;-71
2021/11/17 08:09:27;;;;;;;;;;;11.50;60.80;;;;;;5072288;28;19912;-72
2021/11/17 08:11:53;;;;;;;;;;;11.50;60.80;;;;;;5072208;28;20392;-71
2021/11/17 08:14:18;;;;;;;;;;;11.50;60.60;;;;;;5075797;28;19924;-72
2021/11/17 08:16:44;;;;;;;;;;;11.50;60.20;;;;;;5073093;28;20336;-71
2021/11/17 08:19:09;;;;;;;;;;;11.60;60.00;;;;;;5072108;28;20396;-72
2021/11/17 08:21:35;;;;;;;;;;;11.50;59.80;;;;;;5071899;28;19975;-71
2021/11/17 08:24:01;;;;;;;;;;;11.50;59.70;;;;;;5071306;28;19948;-72
2021/11/17 08:26:27;;;;;;;;;;;11.60;59.70;;;;;;5076592;28;19905;-72
2021/11/17 08:28:52;;;;;;;;;;;11.50;59.50;;;;;;5083005;28;20030;-70
2021/11/17 08:31:18;;;;;;;;;;;11.50;59.40;;;;;;5089955;28;19908;-71
2021/11/17 08:33:44;;;;;;;;;;;11.50;59.50;;;;;;5088346;28;19916;-70
2021/11/17 08:36:11;;;;;;;;;;;11.50;59.40;;;;;;5065663;28;19908;-70
2021/11/17 08:38:36;;;;;;;;;;;11.50;59.40;;;;;;5071488;28;19919;-71
2021/11/17 08:41:04;;;;;;;;;;;11.50;59.40;;;;;;5071608;28;20011;-71
2021/11/17 08:43:30;;;;;;;;;;;11.60;59.50;;;;;;5081412;28;20246;-71
2021/11/17 08:45:56;;;;;;;;;;;11.60;59.40;;;;;;5091845;28;20421;-72
2021/11/17 08:48:23;;;;;;;;;;;11.60;59.40;;;;;;5074585;28;20255;-72
2021/11/17 08:50:50;;;;;;;;;;;11.60;59.50;;;;;;5070117;28;19934;-72
2021/11/17 08:53:17;;;;;;;;;;;11.70;59.60;;;;;;5071507;28;19909;-71
2021/11/17 08:55:44;;;;;;;;;;;11.70;59.60;;;;;;5083276;28;19990;-71
2021/11/17 08:58:10;;;;;;;;;;;11.80;59.60;;;;;;5075439;28;19916;-71
2021/11/17 09:00:36;;;;;;;;;;;11.80;59.60;;;;;;5084531;28;19916;-72
2021/11/17 09:03:04;;;;;;;;;;;11.90;59.60;;;;;;5091329;28;19966;-72
2021/11/17 09:05:32;;;;;;;;;;;12.00;59.60;;;;;;5081995;28;19914;-72
2021/11/17 09:07:59;;;;;;;;;;;12.10;59.30;;;;;;5084927;28;19920;-71
2021/11/17 09:10:29;;;;;;;;;;;12.20;59.20;;;;;;5071724;28;19916;-72
2021/11/17 09:12:55;;;;;;;;;;;12.30;59.20;;;;;;5071389;28;19908;-70
2021/11/17 09:15:22;;;;;;;;;;;12.40;59.00;;;;;;5081224;28;20308;-72
2021/11/17 09:17:48;;;;;;;;;;;12.40;58.90;;;;;;5078824;28;20401;-71
2021/11/17 09:20:15;;;;;;;;;;;12.50;58.50;;;;;;5080534;28;19920;-72
2021/11/17 09:22:41;;;;;;;;;;;12.50;58.40;;;;;;5091389;28;20362;-72
2021/11/17 09:25:07;;;;;;;;;;;12.60;58.30;;;;;;5091063;28;19920;-72
2021/11/17 09:27:33;;;;;;;;;;;12.60;58.30;;;;;;5089515;28;19969;-71
2021/11/17 09:30:00;;;;;;;;;;;12.60;58.90;;;;;;5090631;28;20331;-71
2021/11/17 09:32:25;;;;;;;;;;;12.70;58.20;;;;;;5091251;28;19908;-71
2021/11/17 09:34:52;;;;;;;;;;;12.70;58.00;;;;;;5079494;28;19962;-72
2021/11/17 09:37:23;;;;;;;;;;;12.80;58.00;;;;;;5076416;28;19919;-71
2021/11/17 09:39:52;;;;;;;;;;;12.80;57.90;;;;;;5071095;28;20302;-71
2021/11/17 09:42:18;;;;;;;;;;;12.80;57.80;;;;;;5071257;28;19913;-72
2021/11/17 09:44:43;;;;;;;;;;;12.90;57.60;;;;;;5076731;28;19935;-72
2021/11/17 09:47:17;;;;;;;;;;;12.90;57.60;;;;;;5085286;28;20255;-72
2021/11/17 09:49:48;;;;;;;;;;;12.90;57.50;;;;;;5090914;28;20281;-72
2021/11/17 09:52:19;;;;;;;;;;;12.90;57.30;;;;;;5091391;28;19912;-72
2021/11/17 09:55:05;;;;;;;;;;;12.90;57.10;;;;;;5088271;28;20296;-72
2021/11/17 09:57:35;;;;;;;;;;;12.90;57.10;;;;;;5079318;28;20413;-72
2021/11/17 10:00:09;;;;;;;;;;;12.90;57.00;;;;;;5079484;28;19965;-72
2021/11/17 10:02:40;;;;;;;;;;;12.90;56.90;;;;;;5070675;28;19915;-72
2021/11/17 10:05:15;;;;;;;;;;;12.90;56.70;;;;;;5070518;28;19913;-72
2021/11/17 10:13:37;;;;;;;;;;;12.90;57.00;;;;;;5061397;28;20153;-72
2021/11/17 10:16:02;;;;;;;;;;;13.00;57.20;;;;;;5080320;28;20301;-71
2021/11/17 10:18:49;;;;;;;;;;;13.00;56.80;;;;;;5050730;28;19916;-71
2021/11/17 10:21:26;;;;;;;;;;;13.10;56.80;;;;;;5087263;28;19927;-72
2021/11/17 10:23:57;;;;;;;;;;;13.10;56.70;;;;;;5076138;28;19912;-72
2021/11/17 10:26:23;;;;;;;;;;;13.10;56.40;;;;;;5089574;28;19908;-71
2021/11/17 10:28:53;;;;;;;;;;;13.20;56.40;;;;;;5071312;28;19962;-71
2021/11/17 10:31:21;;;;;;;;;;;13.10;56.10;;;;;;5088521;28;19916;-72
2021/11/17 10:34:08;;;;;;;;;;;13.10;56.00;;;;;;5090651;28;20002;-72
2021/11/17 10:36:47;;;;;;;;;;;13.20;56.10;;;;;;5080805;28;19918;-71
2021/11/17 10:39:21;;;;;;;;;;;13.20;56.30;;;;;;5070407;28;20261;-71
2021/11/17 10:41:53;;;;;;;;;;;13.30;56.40;;;;;;5086520;28;19920;-72
2021/11/17 10:44:31;;;;;;;;;;;13.30;56.30;;;;;;5088577;28;19912;-72
2021/11/17 10:47:00;;;;;;;;;;;13.40;56.20;;;;;;5091329;28;19908;-72
2021/11/17 10:49:27;;;;;;;;;;;13.40;56.10;;;;;;5091319;28;19923;-72
2021/11/17 10:51:57;;;;;;;;;;;13.40;56.00;;;;;;5074383;28;19990;-72
2021/11/17 10:54:27;;;;;;;;;;;13.50;55.90;;;;;;5072320;28;19947;-72
2021/11/17 10:57:01;;;;;;;;;;;13.50;55.80;;;;;;5085444;28;19935;-72
2021/11/17 10:59:26;;;;;;;;;;;13.50;55.60;;;;;;5079601;28;19916;-72
2021/11/17 11:01:52;;;;;;;;;;;13.60;55.70;;;;;;5067640;28;19970;-72
2021/11/17 11:04:27;;;;;;;;;;;13.70;55.70;;;;;;5073379;28;19909;-72
2021/11/17 11:06:54;;;;;;;;;;;13.70;55.30;;;;;;5076669;28;20289;-72
2021/11/17 11:09:29;;;;;;;;;;;13.70;55.10;;;;;;5093806;28;19928;-72
2021/11/17 11:11:55;;;;;;;;;;;13.70;54.90;;;;;;5091687;28;19981;-72
2021/11/17 11:14:21;;;;;;;;;;;13.70;54.80;;;;;;5073262;28;20011;-73
2021/11/17 11:17:05;;;;;;;;;;;13.60;54.40;;;;;;5073426;28;19995;-73
2021/11/17 11:19:32;;;;;;;;;;;13.60;54.20;;;;;;5074091;28;19908;-72
2021/11/17 11:21:57;;;;;;;;;;;13.50;54.10;;;;;;5075168;28;19921;-71
2021/11/17 11:24:35;;;;;;;;;;;13.40;54.20;;;;;;5073275;28;19908;-72
2021/11/17 11:27:01;;;;;;;;;;;13.40;54.40;;;;;;5073264;28;19908;-72
2021/11/17 11:29:30;;;;;;;;;;;13.30;54.50;;;;;;5072748;28;20477;-71
2021/11/17 11:31:57;;;;;;;;;;;13.30;54.70;;;;;;5073164;28;19919;-71
2021/11/17 11:34:29;;;;;;;;;;;13.20;54.70;;;;;;5073239;28;20328;-71
2021/11/17 11:36:55;;;;;;;;;;;13.20;54.70;;;;;;5063405;28;19919;-72
2021/11/17 11:39:20;;;;;;;;;;;13.20;54.90;;;;;;5053117;28;19991;-72
2021/11/17 11:42:07;;;;;;;;;;;13.30;55.00;;;;;;5071183;28;19916;-72
2021/11/17 11:44:38;;;;;;;;;;;13.30;55.10;;;;;;5073225;28;19931;-72
2021/11/17 11:47:04;;;;;;;;;;;13.30;54.80;;;;;;5071447;28;20296;-72
2021/11/17 11:49:35;;;;;;;;;;;13.20;54.40;;;;;;5073263;28;19991;-71
2021/11/17 11:52:06;;;;;;;;;;;13.20;54.20;;;;;;5073398;28;19969;-71
2021/11/17 11:54:35;;;;;;;;;;;13.10;54.00;;;;;;5072526;28;19937;-72
2021/11/17 11:57:00;;;;;;;;;;;13.00;53.80;;;;;;5089645;28;19920;-72
2021/11/17 11:59:27;;;;;;;;;;;13.00;53.80;;;;;;5073590;28;20285;-71
2021/11/17 12:02:14;;;;;;;;;;;12.90;53.90;;;;;;5073592;28;19970;-72
2021/11/17 12:04:44;;;;;;;;;;;12.80;54.00;;;;;;5073262;28;19947;-71
2021/11/17 12:07:19;;;;;;;;;;;12.80;54.10;;;;;;5073158;28;20019;-71
2021/11/17 12:09:58;;;;;;;;;;;12.80;54.10;;;;;;5073144;28;19917;-71
2021/11/17 12:12:27;;;;;;;;;;;12.80;54.20;;;;;;5073189;28;19908;-71
2021/11/17 12:14:55;;;;;;;;;;;12.80;54.20;;;;;;5072956;28;19916;-71
2021/11/17 12:17:22;;;;;;;;;;;12.70;54.10;;;;;;5071675;28;19913;-71
2021/11/17 12:19:51;;;;;;;;;;;12.80;54.30;;;;;;5073041;28;19920;-71
2021/11/17 12:22:37;;;;;;;;;;;12.80;55.10;;;;;;5073123;28;19917;-71
2021/11/17 12:25:21;;;;;;;;;;;12.80;54.50;;;;;;5071012;28;19909;-71
2021/11/17 12:27:48;;;;;;;;;;;12.80;54.50;;;;;;5072707;28;20413;-70
2021/11/17 12:30:28;;;;;;;;;;;12.80;54.40;;;;;;5072562;28;20344;-70
2021/11/17 12:33:02;;;;;;;;;;;12.90;54.40;;;;;;5071580;28;19912;-70
2021/11/17 12:35:28;;;;;;;;;;;12.90;54.30;;;;;;5072664;28;19908;-70
2021/11/17 12:37:56;;;;;;;;;;;12.90;54.30;;;;;;5068063;28;19917;-70
2021/11/17 12:40:31;;;;;;;;;;;12.90;54.10;;;;;;5068106;28;20398;-71
2021/11/17 12:42:58;;;;;;;;;;;12.90;54.10;;;;;;5052841;28;20386;-71
2021/11/17 12:45:25;;;;;;;;;;;12.90;54.10;;;;;;5068048;28;19909;-71
2021/11/17 12:47:53;;;;;;;;;;;12.90;54.20;;;;;;5052590;28;19913;-71
2021/11/17 12:50:25;;;;;;;;;;;13.00;54.30;;;;;;5052575;28;19912;-71
2021/11/17 12:52:54;;;;;;;;;;;13.00;54.20;;;;;;5052706;28;19919;-71
2021/11/17 12:55:40;;;;;;;;;;;13.00;54.20;;;;;;5052601;28;19917;-71
2021/11/17 12:58:12;;;;;;;;;;;13.00;54.20;;;;;;5052284;28;19909;-71
2021/11/17 13:00:41;;;;;;;;;;;13.10;54.10;;;;;;5052341;28;20393;-71
2021/11/17 13:03:08;;;;;;;;;;;13.10;54.10;;;;;;5052341;28;19912;-71
2021/11/17 13:05:36;;;;;;;;;;;13.10;53.90;;;;;;5052295;28;19913;-71
2021/11/17 13:08:02;;;;;;;;;;;13.10;53.70;;;;;;5054280;28;19913;-71
2021/11/17 13:10:30;;;;;;;;;;;13.20;53.80;;;;;;5071931;28;19962;-71
2021/11/17 13:13:11;;;;;;;;;;;13.10;53.70;;;;;;5072136;28;19935;-71
2021/11/17 13:15:38;;;;;;;;;;;13.10;53.60;;;;;;5072081;28;19920;-71
2021/11/17 13:18:21;;;;;;;;;;;13.10;53.60;;;;;;5070208;28;19970;-71
2021/11/17 13:20:47;;;;;;;;;;;13.10;53.70;;;;;;5071888;28;19956;-70
2021/11/17 13:23:13;;;;;;;;;;;13.10;53.50;;;;;;5072093;28;19940;-70
2021/11/17 13:25:50;;;;;;;;;;;13.10;53.50;;;;;;5072142;28;19912;-70
2021/11/17 13:28:34;;;;;;;;;;;13.00;53.40;;;;;;5072122;28;20376;-70
2021/11/17 13:31:20;;;;;;;;;;;13.00;53.40;;;;;;5071998;28;19915;-70
2021/11/17 13:33:54;;;;;;;;;;;12.90;53.40;;;;;;5072056;28;20294;-70
2021/11/17 13:36:34;;;;;;;;;;;12.90;53.40;;;;;;5070780;28;19908;-70
2021/11/17 13:39:00;;;;;;;;;;;12.80;53.40;;;;;;5067248;28;20267;-70
2021/11/17 13:41:25;;;;;;;;;;;12.80;53.50;;;;;;5051868;28;19936;-70
2021/11/17 13:43:51;;;;;;;;;;;12.80;53.60;;;;;;5051954;28;19909;-70
2021/11/17 13:46:20;;;;;;;;;;;12.80;53.60;;;;;;5051888;28;19913;-71
2021/11/17 13:48:47;;;;;;;;;;;12.80;53.60;;;;;;5050310;28;19908;-71
2021/11/17 13:51:14;;;;;;;;;;;12.80;53.70;;;;;;5051982;28;19920;-71
2021/11/17 13:53:41;;;;;;;;;;;12.80;53.60;;;;;;5051925;28;19916;-70
2021/11/17 13:56:09;;;;;;;;;;;12.70;53.60;;;;;;5051796;28;19912;-70
2021/11/17 13:58:35;;;;;;;;;;;12.70;53.60;;;;;;5051721;28;19909;-70
2021/11/17 14:01:02;;;;;;;;;;;12.70;53.60;;;;;;5051714;28;19920;-70
2021/11/17 14:03:30;;;;;;;;;;;12.70;53.70;;;;;;5050361;28;20366;-70
2021/11/17 14:05:59;;;;;;;;;;;12.70;53.80;;;;;;5067029;28;19958;-70
2021/11/17 14:08:25;;;;;;;;;;;12.60;53.80;;;;;;5057515;28;19908;-70
2021/11/17 14:10:50;;;;;;;;;;;12.60;53.80;;;;;;5071639;28;19912;-70
2021/11/17 14:13:16;;;;;;;;;;;12.60;53.80;;;;;;5071637;28;19909;-70
2021/11/17 14:15:42;;;;;;;;;;;12.50;53.80;;;;;;5071418;28;20000;-70
2021/11/17 14:18:09;;;;;;;;;;;12.50;53.90;;;;;;5071279;28;19908;-70
2021/11/17 14:20:36;;;;;;;;;;;12.40;53.90;;;;;;5073047;28;19922;-70
2021/11/17 14:23:01;;;;;;;;;;;12.40;54.10;;;;;;5075403;28;19908;-70
2021/11/17 14:25:28;;;;;;;;;;;12.40;54.30;;;;;;5075218;28;20385;-70
2021/11/17 14:28:14;;;;;;;;;;;12.30;54.30;;;;;;5073915;28;19916;-71
2021/11/17 14:30:42;;;;;;;;;;;12.30;54.40;;;;;;5074570;28;19915;-71
2021/11/17 14:33:09;;;;;;;;;;;12.30;54.50;;;;;;5075170;28;19963;-71
2021/11/17 14:35:35;;;;;;;;;;;12.20;54.50;;;;;;5075105;28;19909;-70
2021/11/17 14:38:01;;;;;;;;;;;12.20;54.60;;;;;;5075071;28;19987;-70
2021/11/17 14:40:28;;;;;;;;;;;12.20;54.70;;;;;;5073537;28;20447;-71
2021/11/17 14:42:54;;;;;;;;;;;12.20;54.70;;;;;;5074985;28;19909;-70
2021/11/17 14:45:22;;;;;;;;;;;12.20;54.80;;;;;;5075021;28;20309;-70
2021/11/17 14:47:48;;;;;;;;;;;12.20;54.80;;;;;;5074886;28;19908;-70
2021/11/17 14:50:14;;;;;;;;;;;12.20;54.90;;;;;;5073502;28;20290;-70
2021/11/17 14:52:40;;;;;;;;;;;12.10;54.70;;;;;;5073483;28;20335;-70
2021/11/17 14:55:08;;;;;;;;;;;12.10;54.70;;;;;;5074794;28;20003;-70
2021/11/17 14:57:36;;;;;;;;;;;12.10;54.80;;;;;;5074791;28;19912;-70
2021/11/17 15:00:07;;;;;;;;;;;12.10;54.80;;;;;;5073714;28;19930;-70
2021/11/17 15:02:33;;;;;;;;;;;12.00;54.80;;;;;;5074572;28;19912;-70
2021/11/17 15:04:58;;;;;;;;;;;12.10;54.90;;;;;;5073463;28;19919;-70
2021/11/17 15:07:24;;;;;;;;;;;12.00;54.80;;;;;;5074591;28;20003;-70
2021/11/17 15:09:50;;;;;;;;;;;12.00;54.80;;;;;;5066563;28;19983;-70
2021/11/17 15:12:17;;;;;;;;;;;12.00;54.80;;;;;;5074433;28;19908;-70
2021/11/17 15:14:44;;;;;;;;;;;12.00;54.90;;;;;;5074250;28;20370;-70
2021/11/17 15:17:10;;;;;;;;;;;12.00;54.90;;;;;;5074496;28;20293;-71
2021/11/17 15:19:36;;;;;;;;;;;12.00;55.00;;;;;;5074205;28;20419;-70
2021/11/17 15:22:02;;;;;;;;;;;11.90;54.80;;;;;;5074168;28;19916;-70
2021/11/17 15:24:31;;;;;;;;;;;11.90;54.80;;;;;;5074276;28;19912;-71
2021/11/17 15:26:59;;;;;;;;;;;11.90;54.70;;;;;;5073656;28;19909;-71
2021/11/17 15:29:25;;;;;;;;;;;11.90;54.80;;;;;;5075442;28;19908;-71
2021/11/17 15:31:50;;;;;;;;;;;11.90;54.90;;;;;;5073187;28;19909;-71
2021/11/17 15:34:16;;;;;;;;;;;11.90;54.90;;;;;;5073873;28;20370;-71
2021/11/17 15:36:43;;;;;;;;;;;11.90;55.00;;;;;;5072737;28;19909;-72
2021/11/17 15:39:09;;;;;;;;;;;11.90;55.00;;;;;;5073928;28;19930;-71
2021/11/17 15:41:37;;;;;;;;;;;11.90;55.00;;;;;;5054317;28;20007;-73
2021/11/17 15:44:03;;;;;;;;;;;11.90;54.90;;;;;;5053909;28;20046;-72
2021/11/17 15:46:29;;;;;;;;;;;11.90;54.80;;;;;;5053811;28;20314;-71
2021/11/17 15:48:54;;;;;;;;;;;11.90;54.80;;;;;;5053670;28;19927;-71
2021/11/17 15:51:24;;;;;;;;;;;11.90;54.80;;;;;;5053857;28;19913;-71
2021/11/17 15:53:50;;;;;;;;;;;11.90;54.80;;;;;;5053703;28;19917;-70
2021/11/17 15:56:16;;;;;;;;;;;11.90;54.60;;;;;;5053697;28;19959;-71
2021/11/17 15:58:43;;;;;;;;;;;11.90;54.60;;;;;;5053713;28;19913;-71
2021/11/17 16:01:11;;;;;;;;;;;11.90;54.70;;;;;;5053608;28;19913;-71
2021/11/17 16:03:37;;;;;;;;;;;11.90;54.80;;;;;;5053450;28;19912;-71
2021/11/17 16:06:04;;;;;;;;;;;11.90;54.80;;;;;;5053378;28;19955;-70
2021/11/17 16:08:31;;;;;;;;;;;11.90;54.80;;;;;;5062912;28;20337;-71
2021/11/17 16:10:57;;;;;;;;;;;11.90;54.80;;;;;;5073224;28;19904;-72
2021/11/17 16:13:22;;;;;;;;;;;11.90;54.80;;;;;;5073401;28;20073;-72
2021/11/17 16:15:49;;;;;;;;;;;11.90;54.80;;;;;;5073091;28;19964;-71
2021/11/17 16:18:16;;;;;;;;;;;11.90;54.70;;;;;;5073086;28;19914;-71
2021/11/17 16:20:54;;;;;;;;;;;11.90;54.70;;;;;;5073208;28;19922;-72
2021/11/17 16:25:50;;;;;;;;;;;11.90;54.80;;;;;;5073078;28;19908;-72
2021/11/17 16:28:17;;;;;;;;;;;11.80;54.70;;;;;;5072942;28;20022;-72
2021/11/17 16:30:44;;;;;;;;;;;11.80;54.70;;;;;;5072616;28;19913;-72
2021/11/17 16:33:11;;;;;;;;;;;11.80;54.70;;;;;;5073028;28;20767;-72
2021/11/17 16:35:38;;;;;;;;;;;11.80;54.80;;;;;;5072905;28;19916;-72
2021/11/17 16:38:05;;;;;;;;;;;11.80;54.70;;;;;;5072845;28;20146;-72
2021/11/17 16:40:32;;;;;;;;;;;11.80;54.70;;;;;;5062123;28;19912;-72
2021/11/17 16:42:58;;;;;;;;;;;11.80;54.70;;;;;;5052324;28;20393;-71
2021/11/17 16:45:24;;;;;;;;;;;11.80;54.70;;;;;;5052299;28;19913;-71
2021/11/17 16:47:50;;;;;;;;;;;11.80;54.80;;;;;;5052608;28;19920;-70
2021/11/17 16:50:16;;;;;;;;;;;11.80;54.80;;;;;;5052740;28;19932;-70
2021/11/17 16:52:44;;;;;;;;;;;11.80;54.90;;;;;;5068031;28;19916;-71
2021/11/17 16:55:16;;;;;;;;;;;11.80;55.00;;;;;;5052651;28;19915;-71
2021/11/17 16:57:42;;;;;;;;;;;11.70;55.00;;;;;;5052680;28;19914;-71
2021/11/17 17:00:10;;;;;;;;;;;11.80;55.00;;;;;;5052536;28;19923;-71
2021/11/17 17:02:35;;;;;;;;;;;11.80;55.00;;;;;;5052473;28;19913;-71
2021/11/17 17:05:01;;;;;;;;;;;11.80;55.10;;;;;;5067965;28;19959;-71
2021/11/17 17:07:27;;;;;;;;;;;11.80;55.10;;;;;;5065128;28;19939;-71